Time;durP1;ratioP1;P1;durP2;ratioP2;P2;SDS_P1;SDS_P2;PMS_P1;PMS_P2;Temp;Humidity;BMP_temperature;BMP_pressure;BME280_temperature;BME280_humidity;BME280_pressure;Samples;Min_cycle;Max_cycle;Signal;HPM_P1;HPM_P2
2022/10/13 00:01:16;;;;;;;12.70;6.30;;;;;;;3.33;80.82;101416.05;1668911;84;21276;-75
2022/10/13 00:03:46;;;;;;;14.13;6.60;;;;;;;3.34;80.99;101412.59;1668906;84;21137;-75
2022/10/13 00:06:20;;;;;;;8.90;6.27;;;;;;;3.33;80.94;101403.95;1668828;84;21038;-75
2022/10/13 00:08:47;;;;;;;10.30;6.60;;;;;;;3.33;81.07;101410.44;1668801;84;21046;-75
2022/10/13 00:11:22;;;;;;;14.43;6.40;;;;;;;3.33;81.08;101412.16;1668792;84;21046;-75
2022/10/13 00:13:51;;;;;;;10.97;5.67;;;;;;;3.32;81.03;101410.41;1668974;84;21089;-75
2022/10/13 00:16:21;;;;;;;11.53;5.83;;;;;;;3.30;81.06;101409.12;1668887;85;21525;-75
2022/10/13 00:18:49;;;;;;;11.08;5.42;;;;;;;3.29;81.12;101409.09;1669136;84;21026;-75
2022/10/13 00:21:20;;;;;;;10.00;5.63;;;;;;;3.29;81.22;101406.50;1668789;85;21496;-75
2022/10/13 00:23:51;;;;;;;9.90;5.63;;;;;;;3.28;81.23;101409.52;1668806;84;21035;-76
2022/10/13 00:26:21;;;;;;;7.37;5.30;;;;;;;3.25;81.13;101412.09;1669032;85;21031;-76
2022/10/13 00:28:49;;;;;;;9.68;5.20;;;;;;;3.24;81.21;101405.58;1668955;84;21157;-76
2022/10/13 00:31:28;;;;;;;9.63;5.43;;;;;;;3.22;81.11;101403.42;1668757;84;21543;-76
2022/10/13 00:33:59;;;;;;;15.07;6.00;;;;;;;3.18;81.06;101406.39;1679513;84;21018;-75
2022/10/13 00:36:26;;;;;;;14.33;6.78;;;;;;;3.16;81.31;101404.24;1680156;84;21054;-75
2022/10/13 00:38:56;;;;;;;11.73;6.47;;;;;;;3.17;81.44;101401.22;1679788;84;21026;-75
2022/10/13 00:41:23;;;;;;;15.33;6.63;;;;;;;3.17;81.37;101403.80;1675816;84;21811;-75
2022/10/13 00:43:58;;;;;;;13.23;6.97;;;;;;;3.15;81.37;101402.91;1692211;84;21011;-76
2022/10/13 00:46:33;;;;;;;12.20;6.30;;;;;;;3.15;81.43;101400.33;1692150;84;21604;-75
2022/10/13 00:49:13;;;;;;;10.63;5.97;;;;;;;3.14;81.50;101396.88;1699014;84;21039;-76
2022/10/13 00:51:46;;;;;;;9.47;5.57;;;;;;;3.10;81.39;101392.09;1704169;83;21030;-76
2022/10/13 00:54:18;;;;;;;8.83;5.43;;;;;;;3.10;81.48;101397.68;1699529;83;21092;-78
2022/10/13 00:56:46;;;;;;;10.87;5.27;;;;;;;3.08;81.43;101392.94;1704218;83;21020;-79
2022/10/13 00:59:21;;;;;;;9.10;5.60;;;;;;;3.05;81.52;101386.00;1704191;83;21038;-75
2022/10/13 01:01:47;;;;;;;9.37;5.40;;;;;;;3.05;81.57;101383.84;1703960;83;21495;-75
2022/10/13 01:04:16;;;;;;;10.40;5.83;;;;;;;3.03;81.49;101382.95;1704240;83;21316;-75
2022/10/13 01:06:44;;;;;;;9.40;6.30;;;;;;;3.02;81.62;101379.50;1704177;83;21496;-75
2022/10/13 01:09:13;;;;;;;9.83;6.00;;;;;;;3.02;81.67;101380.80;1704477;84;21039;-75
2022/10/13 01:12:00;;;;;;;11.20;6.37;;;;;;;3.00;81.60;101379.91;1704280;83;21000;-79
2022/10/13 01:14:47;;;;;;;13.00;7.33;;;;;;;2.98;81.54;101376.42;1704370;83;21012;-75
2022/10/13 01:17:54;;;;;;;20.60;8.93;;;;;;;2.97;81.55;101377.72;1704358;83;21535;-75
2022/10/13 01:20:46;;;;;;;17.77;9.90;;;;;;;2.94;81.63;101375.97;1704192;83;22003;-76
2022/10/13 01:23:24;;;;;;;18.40;9.83;;;;;;;2.91;81.53;101372.05;1704236;83;21073;-76
2022/10/13 01:26:24;;;;;;;20.10;10.83;;;;;;;2.89;81.65;101371.16;1705201;83;21532;-75
2022/10/13 01:29:50;;;;;;;22.97;10.83;;;;;;;2.86;81.71;101365.95;1704555;84;21059;-76
2022/10/13 01:32:49;;;;;;;15.13;8.73;;;;;;;2.83;81.68;101365.50;1676401;84;21621;-76
2022/10/13 01:35:21;;;;;;;14.43;8.73;;;;;;;2.82;81.77;101360.29;1716381;83;21572;-79
2022/10/13 01:38:09;;;;;;;13.93;7.37;;;;;;;2.79;81.88;101355.95;1716172;83;21016;-75
2022/10/13 01:40:51;;;;;;;14.87;7.47;;;;;;;2.79;81.92;101355.95;1716449;83;21017;-75
2022/10/13 01:43:26;;;;;;;14.77;7.27;;;;;;;2.78;81.96;101352.06;1715621;83;21331;-76
2022/10/13 01:46:04;;;;;;;12.80;7.30;;;;;;;2.77;82.13;101348.61;1716513;83;21079;-75
2022/10/13 01:48:35;;;;;;;15.77;7.47;;;;;;;2.77;82.14;101349.02;1716745;83;21123;-75
2022/10/13 01:51:04;;;;;;;11.05;7.10;;;;;;;2.76;82.09;101349.88;1716646;83;21474;-75
2022/10/13 01:53:31;;;;;;;13.63;7.33;;;;;;;2.74;82.22;101343.38;1716697;83;21003;-75
2022/10/13 01:55:59;;;;;;;13.30;7.00;;;;;;;2.76;82.21;101344.27;1716548;83;21071;-74
2022/10/13 01:58:33;;;;;;;11.53;6.87;;;;;;;2.77;82.17;101341.25;1716429;83;21505;-74
2022/10/13 02:01:26;;;;;;;14.00;7.53;;;;;;;2.77;82.35;101339.95;1716459;83;21300;-75
2022/10/13 02:04:08;;;;;;;12.00;6.67;;;;;;;2.77;82.34;101340.84;1716673;83;21032;-76
2022/10/13 02:07:02;;;;;;;13.77;8.20;;;;;;;2.76;82.29;101337.80;1686249;84;21465;-76
2022/10/13 02:09:49;;;;;;;16.50;8.13;;;;;;;2.73;82.22;101340.36;1716720;83;21039;-75
2022/10/13 02:12:28;;;;;;;18.90;8.70;;;;;;;2.69;82.22;101334.72;1716571;83;21055;-77
2022/10/13 02:14:57;;;;;;;15.53;8.10;;;;;;;2.70;82.49;101333.86;1716761;83;21176;-75
2022/10/13 02:17:26;;;;;;;17.85;8.93;;;;;;;2.71;82.53;101334.28;1716602;83;21017;-77
2022/10/13 02:19:55;;;;;;;15.37;8.07;;;;;;;2.70;82.48;101331.27;1716623;83;21039;-75
2022/10/13 02:22:30;;;;;;;14.30;7.80;;;;;;;2.71;82.65;101323.94;1716588;83;21012;-75
2022/10/13 02:24:59;;;;;;;16.57;8.67;;;;;;;2.73;82.94;101321.37;1716724;83;21502;-76
2022/10/13 02:27:28;;;;;;;18.80;8.30;;;;;;;2.74;83.05;101320.51;1716381;83;21333;-75
2022/10/13 02:29:56;;;;;;;15.13;8.27;;;;;;;2.76;82.95;101322.70;1716612;83;21028;-76
2022/10/13 02:32:26;;;;;;;15.95;8.20;;;;;;;2.76;82.90;101320.11;1716559;83;21437;-75
2022/10/13 02:34:53;;;;;;;16.30;7.83;;;;;;;2.75;82.93;101323.12;1716432;83;21072;-77
2022/10/13 02:37:20;;;;;;;13.80;7.87;;;;;;;2.76;83.07;101322.27;1716593;83;21015;-75
2022/10/13 02:39:47;;;;;;;12.70;7.13;;;;;;;2.76;82.98;101315.79;1716485;83;21142;-76
2022/10/13 02:42:16;;;;;;;13.73;7.83;;;;;;;2.76;82.79;101315.79;1716433;83;20919;-75
2022/10/13 02:44:43;;;;;;;11.80;7.77;;;;;;;2.75;82.83;101314.50;1716463;83;20933;-75
2022/10/13 02:47:10;;;;;;;14.93;7.93;;;;;;;2.74;82.88;101314.03;1716340;83;22030;-75
2022/10/13 02:49:37;;;;;;;14.17;8.43;;;;;;;2.75;82.93;101315.36;1716409;83;21611;-75
2022/10/13 02:52:04;;;;;;;12.83;7.87;;;;;;;2.75;83.21;101314.06;1716363;83;21137;-75
2022/10/13 02:54:31;;;;;;;13.00;8.07;;;;;;;2.77;83.04;101316.25;1716689;83;21036;-75
2022/10/13 02:56:58;;;;;;;13.00;7.87;;;;;;;2.75;82.96;101315.36;1716401;83;21083;-75
2022/10/13 02:59:26;;;;;;;15.60;8.60;;;;;;;2.74;83.01;101315.33;1716480;83;20993;-75
2022/10/13 03:01:53;;;;;;;15.77;8.97;;;;;;;2.76;83.08;101311.91;1716699;83;21047;-75
2022/10/13 03:04:21;;;;;;;17.87;9.83;;;;;;;2.76;83.17;101305.44;1716715;83;21066;-76
2022/10/13 03:06:48;;;;;;;18.87;10.73;;;;;;;2.84;84.04;101303.78;1716535;83;21027;-75
2022/10/13 03:09:15;;;;;;;20.57;11.13;;;;;;;2.98;84.60;101305.20;1686488;85;21031;-76
2022/10/13 03:11:43;;;;;;;15.93;9.37;;;;;;;3.02;84.33;101302.20;1716798;83;20992;-78
2022/10/13 03:14:10;;;;;;;20.53;10.40;;;;;;;3.03;83.89;101308.70;1716635;83;21063;-75
2022/10/13 03:16:38;;;;;;;17.00;10.57;;;;;;;3.03;83.83;101307.84;1716474;83;21144;-75
2022/10/13 03:19:06;;;;;;;16.33;10.53;;;;;;;3.06;83.83;101305.28;1697557;83;21028;-75
2022/10/13 03:21:33;;;;;;;19.83;11.93;;;;;;;3.11;84.00;101304.45;1716584;83;21090;-76
2022/10/13 03:24:00;;;;;;;20.30;12.37;;;;;;;3.18;84.28;101299.31;1697820;83;21036;-75
2022/10/13 03:26:29;;;;;;;20.70;12.43;;;;;;;3.21;84.00;101299.34;1716493;83;21089;-75
2022/10/13 03:28:56;;;;;;;18.30;11.83;;;;;;;3.19;83.61;101305.82;1686348;85;22049;-80
2022/10/13 03:31:24;;;;;;;21.13;12.57;;;;;;;3.20;83.88;101309.27;1716837;83;20942;-75
2022/10/13 03:33:51;;;;;;;17.87;12.63;;;;;;;3.22;83.77;101308.86;1692548;83;21470;-75
2022/10/13 03:36:18;;;;;;;20.27;12.87;;;;;;;3.23;83.89;101304.97;1709623;83;21047;-75
2022/10/13 03:38:46;;;;;;;23.73;13.77;;;;;;;3.27;83.99;101300.27;1696215;84;21012;-75
2022/10/13 03:41:17;;;;;;;21.50;13.00;;;;;;;3.27;83.82;101305.45;1709687;84;21144;-75
2022/10/13 03:43:45;;;;;;;19.73;13.67;;;;;;;3.27;83.73;101311.93;1696138;84;21514;-75
2022/10/13 03:46:14;;;;;;;17.57;12.13;;;;;;;3.29;83.98;101305.02;1709684;84;22013;-79
2022/10/13 03:48:42;;;;;;;27.15;13.98;;;;;;;3.31;83.71;101301.15;1709940;84;21007;-75
2022/10/13 03:51:14;;;;;;;22.57;14.73;;;;;;;3.26;83.41;101297.22;1709684;84;21013;-75
2022/10/13 03:53:43;;;;;;;25.30;13.67;;;;;;;3.23;83.36;101303.67;1709982;83;21135;-75
2022/10/13 03:56:19;;;;;;;27.53;16.50;;;;;;;3.25;83.58;101304.56;1666523;84;21286;-75
2022/10/13 03:58:54;;;;;;;23.20;14.53;;;;;;;3.24;83.94;101307.13;1688859;84;20972;-79
2022/10/13 04:01:17;;;;;;;28.17;15.13;;;;;;;3.26;83.88;101299.81;1708746;83;21005;-75
2022/10/13 04:03:46;;;;;;;25.27;15.93;;;;;;;3.30;84.16;101294.24;1709636;84;20999;-78
2022/10/13 04:06:13;;;;;;;28.87;14.63;;;;;;;3.31;84.09;101291.64;1709645;84;21114;-76
2022/10/13 04:08:40;;;;;;;22.77;13.90;;;;;;;3.35;84.27;101291.23;1709459;84;20980;-78
2022/10/13 04:11:11;;;;;;;24.67;14.83;;;;;;;3.32;83.79;101292.08;1709575;84;21025;-79
2022/10/13 04:13:41;;;;;;;23.17;14.70;;;;;;;3.32;83.87;101293.80;1709594;84;21063;-75
2022/10/13 04:16:19;;;;;;;28.27;15.60;;;;;;;3.32;84.11;101292.51;1709647;84;21502;-77
2022/10/13 04:18:54;;;;;;;22.17;14.67;;;;;;;3.34;84.13;101292.96;1695986;84;21145;-75
2022/10/13 04:21:23;;;;;;;24.23;15.77;;;;;;;3.33;83.89;101299.02;1709641;84;21007;-74
2022/10/13 04:23:50;;;;;;;30.30;19.00;;;;;;;3.38;84.64;101295.16;1709544;84;21996;-75
2022/10/13 04:26:21;;;;;;;34.20;20.93;;;;;;;3.44;85.12;101295.20;1709807;84;21027;-75
2022/10/13 04:28:50;;;;;;;38.53;22.87;;;;;;;3.53;85.62;101293.09;1695942;84;21020;-75
2022/10/13 04:31:17;;;;;;;38.97;23.33;;;;;;;3.70;86.44;101292.75;1709569;84;21529;-77
2022/10/13 04:33:45;;;;;;;41.40;26.57;;;;;;;3.87;86.96;101288.94;1712093;83;20955;-74
2022/10/13 04:36:14;;;;;;;43.33;28.13;;;;;;;4.03;87.06;101289.88;1686268;84;22208;-75
2022/10/13 04:38:42;;;;;;;40.03;26.87;;;;;;;4.16;87.17;101289.52;1716445;83;21042;-75
2022/10/13 04:41:12;;;;;;;44.93;29.10;;;;;;;4.28;87.28;101292.14;1686242;85;21066;-75
2022/10/13 04:43:39;;;;;;;47.58;28.23;;;;;;;4.40;87.20;101290.86;1716904;83;21631;-75
2022/10/13 04:46:17;;;;;;;47.23;27.53;;;;;;;4.51;87.10;101293.92;1697426;84;21016;-75
2022/10/13 04:48:46;;;;;;;46.37;28.07;;;;;;;4.61;87.21;101296.55;1700479;84;21461;-76
2022/10/13 04:51:20;;;;;;;40.40;27.33;;;;;;;4.71;87.16;101290.91;1710257;83;21095;-74
2022/10/13 04:53:47;;;;;;;43.40;26.40;;;;;;;4.79;86.97;101293.53;1691050;83;21088;-74
2022/10/13 04:56:17;;;;;;;44.07;26.77;;;;;;;4.85;86.86;101285.73;1690531;83;21968;-73
2022/10/13 04:58:45;;;;;;;43.63;28.20;;;;;;;4.93;87.09;101282.71;1691088;83;21526;-73
2022/10/13 05:01:17;;;;;;;45.20;26.57;;;;;;;5.00;86.81;101284.45;1690987;83;21076;-74
2022/10/13 05:03:44;;;;;;;42.40;27.03;;;;;;;5.03;86.72;101278.40;1689856;83;21087;-73
2022/10/13 05:06:17;;;;;;;41.23;26.93;;;;;;;5.08;86.74;101272.33;1690940;83;21056;-75
2022/10/13 05:08:45;;;;;;;38.27;24.50;;;;;;;5.12;86.59;101268.84;1663702;85;21557;-73
2022/10/13 05:11:14;;;;;;;45.30;28.43;;;;;;;5.16;86.45;101268.88;1690367;83;21039;-74
2022/10/13 05:13:42;;;;;;;48.13;28.97;;;;;;;5.18;86.43;101267.12;1691015;83;21498;-76
2022/10/13 05:16:13;;;;;;;52.60;29.77;;;;;;;5.23;86.47;101263.64;1690678;83;21009;-76
2022/10/13 05:18:40;;;;;;;57.93;29.82;;;;;;;5.27;86.46;101258.03;1691428;83;21047;-74
2022/10/13 05:21:20;;;;;;;47.70;27.90;;;;;;;5.30;86.40;101255.42;1690598;83;21143;-78
2022/10/13 05:23:47;;;;;;;;;;;;;;;5.32;86.26;101257.16;1676325;84;21053;-74
2022/10/13 05:26:17;;;;;;;69.00;31.87;;;;;;;5.35;86.43;101257.59;1673534;84;20130;-77
2022/10/13 05:28:44;;;;;;;56.37;30.30;;;;;;;5.37;86.32;101250.63;1691620;83;21032;-74
2022/10/13 05:31:18;;;;;;;58.27;29.03;;;;;;;5.37;86.12;101250.63;1690764;83;21040;-75
2022/10/13 05:33:46;;;;;;;49.73;28.30;;;;;;;5.37;86.09;101248.02;1690208;83;21148;-76
2022/10/13 05:36:20;;;;;;;54.23;30.23;;;;;;;5.38;86.07;101243.28;1688377;84;20960;-77
2022/10/13 05:38:52;;;;;;;52.70;28.50;;;;;;;5.41;85.96;101246.31;1676343;84;21053;-74
2022/10/13 05:41:21;;;;;;;55.07;28.93;;;;;;;5.40;85.95;101248.45;1688428;84;21044;-74
2022/10/13 05:43:52;;;;;;;52.80;28.97;;;;;;;5.41;85.90;101256.27;1688456;84;21364;-74
2022/10/13 05:46:19;;;;;;;58.17;30.23;;;;;;;5.42;85.92;101250.19;1676584;84;21069;-74
2022/10/13 05:48:46;;;;;;;57.33;30.43;;;;;;;5.44;86.00;101245.00;1673075;84;21490;-74
2022/10/13 05:51:27;;;;;;;53.83;29.00;;;;;;;5.45;85.84;101248.88;1689315;84;21034;-75
2022/10/13 05:54:02;;;;;;;58.70;29.00;;;;;;;5.43;85.85;101244.14;1688528;84;21105;-73
2022/10/13 05:56:33;;;;;;;52.33;28.97;;;;;;;5.45;85.98;101240.22;1681714;84;21082;-75
2022/10/13 05:59:04;;;;;;;50.47;28.90;;;;;;;5.49;86.02;101248.02;1676518;84;21136;-74
2022/10/13 06:01:35;;;;;;;49.27;29.80;;;;;;;5.51;86.04;101244.95;1688853;84;21056;-73
2022/10/13 06:04:05;;;;;;;;;;;;;;;5.56;86.13;101249.71;1658393;85;21061;-75
2022/10/13 06:06:32;;;;;;;45.67;28.13;;;;;;;5.59;86.18;101244.94;1674974;84;20385;-74
2022/10/13 06:09:00;;;;;;;46.20;29.70;;;;;;;5.60;86.08;101236.28;1684998;84;21024;-77
2022/10/13 06:11:27;;;;;;;46.90;29.53;;;;;;;5.64;86.08;101235.39;1683939;84;21996;-74
2022/10/13 06:13:54;;;;;;;50.73;32.23;;;;;;;5.65;86.03;101233.65;1685742;84;21572;-75
2022/10/13 06:16:21;;;;;;;48.90;29.63;;;;;;;5.68;86.14;101235.83;1686732;84;21022;-74
2022/10/13 06:18:48;;;;;;;44.73;29.93;;;;;;;5.73;86.07;101234.48;1678124;84;21306;-75
2022/10/13 06:21:16;;;;;;;49.53;32.13;;;;;;;5.76;86.06;101234.06;1683856;84;21070;-76
2022/10/13 06:23:43;;;;;;;54.67;29.60;;;;;;;5.79;86.05;101238.36;1680489;84;21145;-74
2022/10/13 06:26:10;;;;;;;49.53;28.20;;;;;;;5.84;86.08;101235.75;1685231;84;21106;-75
2022/10/13 06:28:37;;;;;;;51.57;28.90;;;;;;;5.88;86.18;101230.54;1683036;84;21468;-78
2022/10/13 06:31:06;;;;;;;51.60;31.20;;;;;;;5.94;86.25;101229.23;1686354;84;21009;-75
2022/10/13 06:33:33;;;;;;;43.13;28.00;;;;;;;6.00;86.19;101230.94;1685216;84;21029;-75
2022/10/13 06:36:04;;;;;;;52.17;29.00;;;;;;;6.06;86.15;101232.20;1669752;84;21179;-78
2022/10/13 06:38:32;;;;;;;46.98;27.95;;;;;;;6.11;86.14;101231.75;1690319;83;21081;-75
2022/10/13 06:41:01;;;;;;;48.93;29.33;;;;;;;6.17;86.19;101223.05;1690932;83;21051;-75
2022/10/13 06:43:29;;;;;;;42.88;27.48;;;;;;;6.23;86.15;101228.20;1686925;83;21514;-75
2022/10/13 06:45:59;;;;;;;39.25;23.92;;;;;;;6.30;86.22;101231.66;1690925;83;21059;-77
2022/10/13 06:48:28;;;;;;;40.87;24.53;;;;;;;6.35;86.23;101229.45;1686823;83;21104;-82
2022/10/13 06:51:02;;;;;;;41.00;24.70;;;;;;;6.42;86.18;101225.05;1689872;83;21003;-82
2022/10/13 06:53:29;;;;;;;40.23;24.70;;;;;;;6.50;86.25;101221.96;1687330;83;21038;-75
2022/10/13 06:56:00;;;;;;;42.87;24.37;;;;;;;6.58;86.14;101225.82;1689408;83;21043;-75
2022/10/13 06:58:27;;;;;;;41.65;23.02;;;;;;;6.65;86.06;101224.88;1688447;83;21045;-75
2022/10/13 07:00:55;;;;;;;34.73;22.73;;;;;;;6.73;85.96;101220.92;1688650;83;21169;-75
2022/10/13 07:03:23;;;;;;;37.23;22.83;;;;;;;6.80;85.93;101220.86;1719950;83;21574;-75
2022/10/13 07:05:52;;;;;;;33.87;22.53;;;;;;;6.88;85.80;101222.11;1708325;84;21051;-74
2022/10/13 07:08:19;;;;;;;40.33;22.30;;;;;;;6.96;85.65;101219.45;1721114;83;21018;-76
2022/10/13 07:10:47;;;;;;;33.53;22.03;;;;;;;7.04;85.52;101225.42;1721167;83;21026;-74
2022/10/13 07:13:14;;;;;;;35.73;22.27;;;;;;;7.11;85.38;101225.36;1721448;83;21122;-74
2022/10/13 07:15:41;;;;;;;35.13;21.60;;;;;;;7.21;85.33;101222.68;1721005;83;21547;-74
2022/10/13 07:18:08;;;;;;;34.13;22.37;;;;;;;7.29;85.20;101220.41;1708632;84;21128;-75
2022/10/13 07:20:35;;;;;;;37.27;22.50;;;;;;;7.36;85.08;101221.20;1721200;83;21010;-74
2022/10/13 07:23:02;;;;;;;34.67;22.53;;;;;;;7.42;84.88;101213.30;1721543;83;21032;-75
2022/10/13 07:25:30;;;;;;;37.23;22.43;;;;;;;7.48;84.79;101211.95;1721252;83;21148;-75
2022/10/13 07:28:00;;;;;;;35.10;22.77;;;;;;;7.54;84.70;101216.23;1708211;84;21482;-75
2022/10/13 07:30:28;;;;;;;35.43;21.35;;;;;;;7.61;84.79;101212.66;1721244;83;21011;-75
2022/10/13 07:32:55;;;;;;;33.17;21.00;;;;;;;7.69;84.63;101213.44;1721513;83;21048;-75
2022/10/13 07:35:24;;;;;;;37.60;23.03;;;;;;;7.74;84.42;101214.69;1720642;83;21278;-81
2022/10/13 07:37:52;;;;;;;30.23;21.40;;;;;;;7.80;84.37;101206.33;1708335;84;22009;-75
2022/10/13 07:40:19;;;;;;;33.57;21.07;;;;;;;7.90;84.49;101208.81;1721020;83;21579;-75
2022/10/13 07:42:47;;;;;;;34.03;20.60;;;;;;;8.00;84.66;101203.91;1721044;83;21011;-74
2022/10/13 07:45:16;;;;;;;35.97;20.90;;;;;;;8.10;84.53;101202.05;1708497;84;21023;-75
2022/10/13 07:47:43;;;;;;;31.13;20.53;;;;;;;8.18;84.43;101198.88;1721085;83;21039;-75
2022/10/13 07:50:10;;;;;;;32.87;21.07;;;;;;;8.26;84.41;101201.80;1721194;83;21204;-75
2022/10/13 07:52:38;;;;;;;32.63;21.03;;;;;;;8.35;84.32;101198.63;1700408;83;21011;-75
2022/10/13 07:55:07;;;;;;;29.87;19.83;;;;;;;8.42;84.32;101197.22;1721211;83;21033;-75
2022/10/13 07:57:34;;;;;;;35.50;20.67;;;;;;;8.49;83.86;101191.02;1721134;83;20920;-82
2022/10/13 08:00:03;;;;;;;31.17;20.07;;;;;;;8.51;83.58;101191.02;1721086;83;21481;-75
2022/10/13 08:02:34;;;;;;;31.73;20.33;;;;;;;8.53;83.29;101191.83;1721332;83;21114;-75
2022/10/13 08:05:03;;;;;;;31.93;20.23;;;;;;;8.56;83.16;101198.76;1708213;84;21035;-75
2022/10/13 08:07:30;;;;;;;31.53;19.87;;;;;;;8.55;82.86;101193.13;1721452;83;21030;-82
2022/10/13 08:09:57;;;;;;;30.77;19.27;;;;;;;8.57;83.01;101193.97;1721127;83;21043;-74
2022/10/13 08:12:24;;;;;;;32.67;19.13;;;;;;;8.63;83.12;101196.03;1708325;84;21559;-74
2022/10/13 08:14:51;;;;;;;28.43;19.23;;;;;;;8.69;83.17;101187.23;1721104;83;21198;-75
2022/10/13 08:17:19;;;;;;;31.70;20.03;;;;;;;8.77;83.24;101180.57;1721278;83;20931;-75
2022/10/13 08:19:46;;;;;;;30.60;18.93;;;;;;;8.89;83.27;101181.65;1708339;84;20909;-75
2022/10/13 08:22:13;;;;;;;31.40;19.23;;;;;;;9.03;83.47;101177.03;1704082;83;21522;-75
2022/10/13 08:24:41;;;;;;;30.47;19.47;;;;;;;9.22;83.47;101170.16;1721127;83;21569;-74
2022/10/13 08:27:16;;;;;;;28.23;18.70;;;;;;;9.38;83.54;101175.52;1721287;83;21137;-79
2022/10/13 08:29:44;;;;;;;26.97;17.83;;;;;;;9.56;83.37;101169.92;1719763;83;21005;-74
2022/10/13 08:32:11;;;;;;;27.80;17.97;;;;;;;9.77;83.31;101167.73;1721375;83;21018;-77
2022/10/13 08:34:38;;;;;;;29.00;17.60;;;;;;;9.98;83.06;101175.14;1720374;83;21774;-83
2022/10/13 08:37:05;;;;;;;23.60;16.40;;;;;;;10.18;83.10;101165.51;1697472;83;21525;-74
2022/10/13 08:39:32;;;;;;;25.50;16.67;;;;;;;10.42;82.82;101164.53;1716420;83;21205;-74
2022/10/13 08:42:00;;;;;;;30.33;17.50;;;;;;;10.61;82.29;101161.88;1686187;84;21076;-80
2022/10/13 08:44:45;;;;;;;27.30;16.00;;;;;;;10.78;82.07;101165.83;1716409;83;21489;-75
2022/10/13 08:47:34;;;;;;;22.05;15.32;;;;;;;10.97;81.75;101164.45;1686289;85;21011;-75
2022/10/13 08:50:12;;;;;;;23.47;15.00;;;;;;;11.14;81.31;101164.88;1686649;84;21080;-75
2022/10/13 08:52:58;;;;;;;25.68;15.63;;;;;;;11.32;80.92;101157.40;1700274;84;21953;-75
2022/10/13 08:55:36;;;;;;;21.62;15.18;;;;;;;11.51;80.79;101154.66;1716389;83;21462;-74
2022/10/13 08:58:24;;;;;;;21.37;14.68;;;;;;;11.73;80.57;101165.40;1697393;83;21044;-75
2022/10/13 09:00:59;;;;;;;20.27;14.33;;;;;;;11.97;80.50;101153.77;1691988;84;21461;-74
2022/10/13 09:03:28;;;;;;;19.25;13.78;;;;;;;12.13;79.58;101156.33;1716449;83;21026;-75
2022/10/13 09:06:01;;;;;;;18.60;13.83;;;;;;;12.31;79.52;101154.90;1686557;85;21962;-75
2022/10/13 09:08:37;;;;;;;23.67;14.55;;;;;;;12.54;79.47;101150.66;1672937;85;21024;-74
2022/10/13 09:11:04;;;;;;;21.93;13.25;;;;;;;12.76;78.96;101145.06;1716347;83;21036;-75
2022/10/13 09:13:32;;;;;;;23.60;13.10;;;;;;;12.95;78.68;101146.16;1697563;83;21044;-76
2022/10/13 09:16:01;;;;;;;22.60;12.68;;;;;;;13.17;78.26;101143.62;1716478;83;21523;-78
2022/10/13 09:18:32;;;;;;;20.48;12.40;;;;;;;13.38;77.84;101145.09;1686284;85;21991;-75
2022/10/13 09:21:24;;;;;;;17.32;11.95;;;;;;;13.60;77.61;101137.25;1716366;83;21067;-75
2022/10/13 09:23:53;;;;;;;20.50;11.53;;;;;;;13.81;76.97;101139.53;1686160;85;21000;-75
2022/10/13 09:26:24;;;;;;;16.45;11.55;;;;;;;14.07;76.75;101135.87;1716455;83;20987;-74
2022/10/13 09:28:52;;;;;;;21.05;11.73;;;;;;;14.29;76.41;101134.55;1697407;83;21032;-75
2022/10/13 09:31:29;;;;;;;15.45;10.88;;;;;;;14.50;75.61;101134.98;1716471;83;21133;-75
2022/10/13 09:34:00;;;;;;;17.30;11.48;;;;;;;14.67;75.31;101130.35;1697593;83;21020;-81
2022/10/13 09:36:29;;;;;;;19.12;11.22;;;;;;;14.93;75.17;101131.86;1719864;83;21030;-75
2022/10/13 09:39:16;;;;;;;17.35;11.15;;;;;;;15.17;74.66;101133.89;1720992;83;21046;-75
2022/10/13 09:41:44;;;;;;;18.12;10.68;;;;;;;15.38;74.18;101134.73;1708239;84;21079;-83
2022/10/13 09:44:30;;;;;;;14.45;10.28;;;;;;;15.70;73.80;101134.20;1721120;83;21525;-84
2022/10/13 09:47:02;;;;;;;17.65;10.30;;;;;;;15.88;73.17;101133.34;1721032;83;21042;-76
2022/10/13 09:49:42;;;;;;;19.17;10.82;;;;;;;16.16;72.75;101135.52;1721346;83;21030;-76
2022/10/13 09:52:18;;;;;;;;;;;;;;;16.37;72.18;101133.59;1723365;83;21001;-82
2022/10/13 09:54:50;;;;;;;20.00;10.43;;;;;;;16.56;70.98;101124.27;1721437;83;20489;-75
2022/10/13 09:57:40;;;;;;;17.23;9.80;;;;;;;16.76;71.26;101123.25;1708253;84;21132;-75
2022/10/13 10:00:21;;;;;;;19.05;10.13;;;;;;;16.92;70.04;101120.23;1716069;83;20995;-76
2022/10/13 10:03:03;;;;;;;16.82;9.28;;;;;;;17.12;69.48;101115.69;1721029;83;21023;-76
2022/10/13 10:05:54;;;;;;;19.07;9.90;;;;;;;17.37;69.37;101105.47;1708416;84;21429;-75
2022/10/13 10:08:33;;;;;;;15.13;8.78;;;;;;;17.64;68.55;101106.24;1721028;83;21039;-75
2022/10/13 10:11:03;;;;;;;12.82;9.50;;;;;;;17.85;68.39;101105.56;1701350;84;21092;-75
2022/10/13 10:13:30;;;;;;;12.55;9.03;;;;;;;18.13;67.84;101096.03;1720973;83;21520;-75
2022/10/13 10:16:08;;;;;;;12.30;8.78;;;;;;;18.44;67.70;101095.09;1721030;83;21046;-75
2022/10/13 10:18:49;;;;;;;15.05;8.95;;;;;;;18.68;66.81;101091.47;1708260;83;21274;-76
2022/10/13 10:21:28;;;;;;;14.85;9.13;;;;;;;18.99;66.43;101087.83;1721080;83;20999;-77
2022/10/13 10:24:12;;;;;;;14.75;9.58;;;;;;;19.16;65.29;101080.15;1708571;84;21128;-80
2022/10/13 10:26:50;;;;;;;12.35;9.20;;;;;;;19.31;64.18;101079.66;1721001;83;21067;-75
2022/10/13 10:29:46;;;;;;;13.93;8.80;;;;;;;19.44;63.66;101083.73;1708357;83;21146;-75
2022/10/13 10:32:37;;;;;;;15.18;8.63;;;;;;;19.58;63.32;101072.59;1721096;83;21019;-76
2022/10/13 10:35:53;;;;;;;11.83;8.60;;;;;;;19.86;63.10;101068.17;1721184;83;21142;-82
2022/10/13 10:38:51;;;;;;;16.02;8.93;;;;;;;20.10;62.26;101072.37;1720671;83;21931;-76
2022/10/13 10:42:01;;;;;;;12.80;8.40;;;;;;;20.23;61.35;101058.62;1708319;84;21612;-76
2022/10/13 10:44:39;;;;;;;17.00;8.43;;;;;;;20.37;61.05;101060.81;1721014;83;21043;-76
2022/10/13 10:47:17;;;;;;;12.33;7.92;;;;;;;20.52;60.38;101053.61;1721154;83;21291;-75
2022/10/13 10:49:46;;;;;;;10.58;7.85;;;;;;;20.66;60.30;101057.05;1706800;84;21542;-78
2022/10/13 10:53:02;;;;;;;13.58;8.00;;;;;;;20.81;59.37;101051.62;1721044;83;21214;-75
2022/10/13 10:55:47;;;;;;;11.97;7.67;;;;;;;20.98;58.74;101051.31;1678446;85;21015;-75
2022/10/13 10:58:37;;;;;;;16.45;8.75;;;;;;;21.19;58.50;101043.59;1650243;87;21585;-75
2022/10/13 11:01:31;;;;;;;14.00;7.85;;;;;;;21.32;58.14;101048.91;1684385;84;21000;-79
2022/10/13 11:04:25;;;;;;;12.55;8.50;;;;;;;21.44;57.74;101029.38;1708416;84;21532;-76
2022/10/13 11:06:53;;;;;;;14.58;8.53;;;;;;;21.47;56.75;101029.63;1695741;84;21066;-75
2022/10/13 11:09:44;;;;;;;14.45;8.08;;;;;;;21.58;56.51;101015.88;1695997;84;21461;-75
2022/10/13 11:12:23;;;;;;;13.45;8.15;;;;;;;21.76;56.38;101012.34;1695967;84;28984;-75
2022/10/13 11:15:08;;;;;;;13.30;8.08;;;;;;;21.96;56.12;101008.18;1695763;84;20932;-75
2022/10/13 11:17:38;;;;;;;10.10;7.30;;;;;;;22.01;55.04;101006.02;1694916;84;21449;-75
2022/10/13 11:20:24;;;;;;;12.95;7.17;;;;;;;22.07;54.97;101007.86;1695667;84;21127;-80
2022/10/13 11:23:05;;;;;;;12.93;7.30;;;;;;;22.16;54.78;101003.15;1695704;84;21084;-78
2022/10/13 11:25:46;;;;;;;12.07;7.55;;;;;;;22.31;54.25;100997.14;1696069;84;21144;-75
2022/10/13 11:28:42;;;;;;;15.85;7.78;;;;;;;22.44;54.35;100992.56;1695895;84;21043;-75
2022/10/13 11:31:29;;;;;;;16.53;7.40;;;;;;;22.61;53.99;100992.09;1696212;84;21115;-75
2022/10/13 11:34:01;;;;;;;16.37;7.97;;;;;;;22.71;53.51;100992.23;1691366;84;21126;-80
2022/10/13 11:36:50;;;;;;;9.98;6.28;;;;;;;22.90;53.18;100997.83;1693691;84;21064;-74
2022/10/13 11:39:37;;;;;;;11.50;6.78;;;;;;;23.04;52.78;100987.40;1675828;84;21427;-75
2022/10/13 11:42:13;;;;;;;11.12;6.55;;;;;;;23.12;51.86;100982.28;1701568;84;21038;-78
2022/10/13 11:44:59;;;;;;;11.40;7.12;;;;;;;23.19;51.40;100970.59;1704421;83;20995;-75
2022/10/13 11:48:08;;;;;;;11.73;7.10;;;;;;;23.21;51.06;100969.98;1696881;84;21793;-74